This is the latest recevied weather packets stored in our database for station/object W1TG-2. If no packets are shown the sender has not sent any weather packets the latest 10 day(s).
| Time | Temp. | Humidity | Pressure | Rain* | Wind** | Luminosity | Snow |
|---|---|---|---|---|---|---|---|
| 1787851443 | 25° C | 79% | 1016.3 hPa | 0 mm | - | - | - |
| 1787851083 | 25.56° C | 79% | 1016.4 hPa | 0 mm | - | - | - |
| 1787850724 | 25.56° C | 79% | 1016.3 hPa | 0 mm | - | - | - |
| 1787850364 | 25.56° C | 78% | 1016.2 hPa | 0 mm | - | - | - |
| 1787850003 | 26.11° C | 76% | 1016.3 hPa | 0 mm | - | - | - |
| 1787849644 | 26.67° C | 76% | 1016.4 hPa | 0 mm | - | - | - |
| 1787849284 | 26.67° C | 73% | 1016.3 hPa | 0 mm | - | - | - |
| 1787848923 | 26.67° C | 72% | 1016.4 hPa | 0 mm | - | - | - |
| 1787848563 | 26.11° C | 74% | 1016.6 hPa | 0 mm | - | - | - |
| 1787848204 | 26.67° C | 74% | 1016.7 hPa | 0 mm | - | - | - |
| 1787847843 | 26.67° C | 74% | 1016.8 hPa | 0 mm | - | - | - |
| 1787847483 | 26.67° C | 74% | 1017 hPa | 0 mm | - | - | - |
| 1787847124 | 26.67° C | 75% | 1017 hPa | 0 mm | - | - | - |
| 1787846764 | 26.11° C | 76% | 1017.1 hPa | 0 mm | - | - | - |
| 1787846403 | 26.11° C | 76% | 1017.1 hPa | 0 mm | - | - | - |
| 1787846044 | 26.11° C | 76% | 1017 hPa | 0 mm | - | - | - |
| 1787845684 | 26.67° C | 74% | 1017.2 hPa | 0 mm | - | - | - |
| 1787845323 | 26.67° C | 75% | 1017 hPa | 0 mm | - | - | - |
| 1787844964 | 26.67° C | 74% | 1017.2 hPa | 0 mm | - | - | - |
| 1787844603 | 26.11° C | 77% | 1017.1 hPa | 0 mm | - | - | - |
| 1787844243 | 25.56° C | 79% | 1017.1 hPa | 0 mm | - | - | - |
| 1787843883 | 25.56° C | 78% | 1017.3 hPa | 0 mm | - | - | - |
| 1787843524 | 25.56° C | 78% | 1017.4 hPa | 0 mm | - | - | - |
| 1787843163 | 25° C | 79% | 1017.4 hPa | 0 mm | - | - | - |
| 1787842803 | 25° C | 80% | 1017.3 hPa | 0 mm | - | - | - |
* Rain latest hour (hover to see other rain measurements)
** Current wind speed in m/s (hover to see current wind gust speed)